Time;durP1;ratioP1;P1;durP2;ratioP2;P2;SDS_P1;SDS_P2;PMS_P1;PMS_P2;Temp;Humidity;BMP_temperature;BMP_pressure;BME280_temperature;BME280_humidity;BME280_pressure;Samples;Min_cycle;Max_cycle;Signal;HPM_P1;HPM_P2
2021/08/13 00:01:38;;;;;;;11.80;5.50;;;;;;;18.13;62.12;101174.55;125296;1102;104284;-81
2021/08/13 00:04:10;;;;;;;11.63;5.10;;;;;;;18.13;62.27;101174.55;125274;1102;104300;-81
2021/08/13 00:06:43;;;;;;;14.13;5.33;;;;;;;18.10;62.59;101169.20;125339;1102;104236;-82
2021/08/13 00:09:17;;;;;;;12.70;5.23;;;;;;;18.06;62.44;101168.27;125266;1102;104371;-82
2021/08/13 00:11:46;;;;;;;;;;;;;;;18.01;62.08;101161.97;125343;1100;104291;-82
2021/08/13 00:14:17;;;;;;;15.50;5.87;;;;;;;17.96;62.21;101164.55;125245;1103;104265;-81
2021/08/13 00:16:52;;;;;;;14.33;5.47;;;;;;;17.92;62.60;101168.05;125316;1102;104373;-82
2021/08/13 00:19:23;;;;;;;14.17;6.00;;;;;;;17.91;62.76;101160.94;125463;1099;104293;-82
2021/08/13 00:21:54;;;;;;;11.47;5.77;;;;;;;17.93;62.65;101166.27;125387;1099;104299;-82
2021/08/13 00:24:24;;;;;;;17.17;5.70;;;;;;;17.92;62.97;101168.05;126164;1099;104143;-82
2021/08/13 00:26:56;;;;;;;13.10;5.53;;;;;;;17.92;62.90;101167.12;126314;1099;104598;-81
2021/08/13 00:29:26;;;;;;;14.37;6.03;;;;;;;17.88;63.13;101166.20;126348;1099;104146;-82
2021/08/13 00:31:57;;;;;;;14.43;5.90;;;;;;;17.88;62.87;101167.94;126329;1099;104281;-81
2021/08/13 00:34:29;;;;;;;12.87;6.07;;;;;;;17.86;63.26;101169.68;126275;1099;104501;-81
2021/08/13 00:37:00;;;;;;;13.30;6.00;;;;;;;17.84;63.30;101172.31;126338;1099;104152;-81
2021/08/13 00:39:31;;;;;;;16.67;5.97;;;;;;;17.83;63.56;101172.28;126334;1098;104219;-81
2021/08/13 00:42:05;;;;;;;16.43;5.97;;;;;;;17.79;63.74;101174.89;125406;1099;104146;-82
2021/08/13 00:44:42;;;;;;;17.07;6.40;;;;;;;17.75;63.65;101170.38;126270;1099;104332;-82
2021/08/13 00:47:13;;;;;;;15.75;6.45;;;;;;;17.71;64.00;101171.19;126341;1099;104168;-82
2021/08/13 00:49:59;;;;;;;17.90;6.30;;;;;;;17.65;64.12;101171.08;125238;1102;104290;-81
2021/08/13 00:52:38;;;;;;;16.10;5.53;;;;;;;17.64;64.15;101171.05;125296;1102;101803;-81
2021/08/13 00:55:12;;;;;;;11.93;5.50;;;;;;;17.64;64.01;101171.97;125267;1102;104321;-82
2021/08/13 00:57:54;;;;;;;13.97;5.67;;;;;;;17.63;63.84;101175.48;125316;1102;104370;-81
2021/08/13 01:00:35;;;;;;;17.27;5.80;;;;;;;17.60;63.89;101165.69;125309;1102;104335;-81
2021/08/13 01:03:08;;;;;;;14.35;6.12;;;;;;;17.59;64.20;101171.89;125267;1102;104159;-82
2021/08/13 01:05:43;;;;;;;13.57;6.23;;;;;;;17.57;64.06;101168.29;125243;1102;104306;-82
2021/08/13 01:08:16;;;;;;;16.73;6.13;;;;;;;17.52;64.03;101169.98;125707;1099;104149;-82
2021/08/13 01:11:00;;;;;;;11.00;5.53;;;;;;;17.49;64.32;101167.27;125389;1102;104178;-82
2021/08/13 01:13:44;;;;;;;14.30;5.87;;;;;;;17.46;64.67;101166.33;126284;1099;104153;-81
2021/08/13 01:16:21;;;;;;;15.60;6.20;;;;;;;17.43;64.06;101167.16;126279;1099;104236;-81
2021/08/13 01:19:00;;;;;;;12.40;5.77;;;;;;;17.42;65.00;101170.66;126332;1098;104633;-81
2021/08/13 01:21:42;;;;;;;15.77;6.37;;;;;;;17.38;64.62;101169.73;126372;1099;104172;-82
2021/08/13 01:24:19;;;;;;;14.93;6.40;;;;;;;17.36;64.87;101167.93;125339;1099;104272;-82
2021/08/13 01:26:55;;;;;;;15.07;6.47;;;;;;;17.34;65.34;101173.20;126328;1098;104153;-82
2021/08/13 01:29:42;;;;;;;12.83;5.97;;;;;;;17.29;64.87;101174.86;126298;1099;104174;-81
2021/08/13 01:32:32;;;;;;;16.57;6.23;;;;;;;17.25;65.19;101180.98;126285;1099;104158;-81
2021/08/13 01:35:08;;;;;;;13.17;5.93;;;;;;;17.21;65.84;101180.02;125376;1099;104271;-83
2021/08/13 01:37:44;;;;;;;12.80;5.90;;;;;;;17.20;66.33;101180.90;126145;1099;104178;-81
2021/08/13 01:40:17;;;;;;;16.10;5.90;;;;;;;17.17;66.01;101174.62;125185;1099;104297;-82
2021/08/13 01:42:50;;;;;;;15.58;6.10;;;;;;;17.14;65.72;101179.86;125420;1099;104143;-82
2021/08/13 01:45:26;;;;;;;12.40;5.77;;;;;;;17.12;66.13;101182.48;126148;1099;104207;-81
2021/08/13 01:47:59;;;;;;;14.33;5.83;;;;;;;17.10;65.86;101188.64;126331;1099;104163;-81
2021/08/13 01:50:30;;;;;;;15.43;6.20;;;;;;;17.09;66.15;101194.80;126391;1098;104168;-82
2021/08/13 01:53:04;;;;;;;17.17;6.17;;;;;;;17.05;66.27;101188.55;126256;1099;104319;-82
2021/08/13 01:55:37;;;;;;;12.30;6.10;;;;;;;17.04;66.16;101187.63;126038;1098;104165;-81
2021/08/13 01:58:11;;;;;;;16.17;6.10;;;;;;;17.03;66.28;101190.25;125414;1099;104150;-82
2021/08/13 02:00:43;;;;;;;15.37;6.10;;;;;;;17.00;66.62;101192.84;125429;1099;104143;-81
2021/08/13 02:03:16;;;;;;;15.97;6.03;;;;;;;16.98;66.26;101194.58;125406;1099;104305;-82
2021/08/13 02:05:50;;;;;;;16.13;6.93;;;;;;;16.96;66.32;101196.31;125353;1099;104195;-81
2021/08/13 02:08:27;;;;;;;15.37;6.23;;;;;;;16.95;66.88;101203.35;126293;1099;104699;-82
2021/08/13 02:10:59;;;;;;;15.37;7.10;;;;;;;16.92;66.69;101211.23;126349;1099;104172;-80
2021/08/13 02:13:31;;;;;;;17.00;6.60;;;;;;;16.89;66.87;101212.09;126337;1099;104134;-82
2021/08/13 02:16:09;;;;;;;14.77;6.17;;;;;;;16.87;67.17;101215.56;125968;1099;104789;-83
2021/08/13 02:18:48;;;;;;;15.10;6.30;;;;;;;16.84;67.71;101216.37;125416;1099;104194;-80
2021/08/13 02:21:20;;;;;;;16.83;6.70;;;;;;;16.81;68.13;101220.69;126326;1099;104149;-82
2021/08/13 02:23:53;;;;;;;19.35;6.33;;;;;;;16.76;67.72;101225.01;125326;1099;104137;-82
2021/08/13 02:26:26;;;;;;;16.20;6.07;;;;;;;16.71;67.86;101225.79;125317;1099;104204;-82
2021/08/13 02:28:56;;;;;;;18.53;5.93;;;;;;;16.67;67.91;101226.61;126352;1099;104222;-81
2021/08/13 02:31:27;;;;;;;16.83;6.30;;;;;;;16.63;67.74;101230.03;125361;1099;104198;-82
2021/08/13 02:33:58;;;;;;;15.07;6.00;;;;;;;16.60;68.61;101232.61;126336;1098;104203;-84
2021/08/13 02:36:36;;;;;;;14.90;6.47;;;;;;;16.56;68.52;101227.21;126254;1099;104251;-82
2021/08/13 02:39:14;;;;;;;16.83;6.83;;;;;;;16.54;68.35;101229.83;125406;1099;104220;-82
2021/08/13 02:41:46;;;;;;;18.47;6.93;;;;;;;16.52;68.71;101239.50;126326;1098;104143;-82
2021/08/13 02:44:20;;;;;;;17.03;6.60;;;;;;;16.50;68.32;101239.47;126353;1099;104149;-82
2021/08/13 02:46:59;;;;;;;16.40;6.50;;;;;;;16.48;69.18;101241.16;125339;1099;104147;-82
2021/08/13 02:49:31;;;;;;;16.80;6.30;;;;;;;16.47;68.63;101239.39;125341;1099;104223;-81
2021/08/13 02:52:08;;;;;;;16.03;6.23;;;;;;;16.44;68.88;101244.62;125936;1099;104211;-81
2021/08/13 02:54:41;;;;;;;14.23;6.20;;;;;;;16.43;68.52;101241.94;126345;1099;104146;-81
2021/08/13 02:57:13;;;;;;;15.23;6.70;;;;;;;16.42;68.65;101245.43;125732;1099;104171;-83
2021/08/13 02:59:47;;;;;;;15.47;7.30;;;;;;;16.43;68.94;101255.17;126328;1099;104149;-82
2021/08/13 03:02:21;;;;;;;14.25;6.17;;;;;;;16.41;68.67;101257.79;126291;1099;104188;-81
2021/08/13 03:04:55;;;;;;;16.27;6.23;;;;;;;16.42;68.72;101256.91;126338;1099;104120;-81
2021/08/13 03:07:28;;;;;;;18.77;6.43;;;;;;;16.40;69.37;101248.04;125341;1099;104139;-81
2021/08/13 03:10:02;;;;;;;14.03;6.40;;;;;;;16.41;68.57;101251.58;126293;1099;104255;-82
2021/08/13 03:12:33;;;;;;;18.77;6.53;;;;;;;16.41;69.55;101257.79;126308;1099;104162;-83
2021/08/13 03:15:06;;;;;;;17.83;6.30;;;;;;;16.41;68.89;101251.58;125404;1099;104229;-82
2021/08/13 03:17:44;;;;;;;15.33;5.83;;;;;;;16.40;69.05;101252.45;125984;1099;104176;-81
2021/08/13 03:20:15;;;;;;;11.33;5.17;;;;;;;16.39;69.54;101254.19;125412;1099;105286;-81
2021/08/13 03:22:59;;;;;;;15.83;6.50;;;;;;;16.39;69.67;101255.95;125416;1099;104319;-82
2021/08/13 03:25:31;;;;;;;19.17;7.53;;;;;;;16.38;69.58;101255.06;126309;1099;104143;-82
2021/08/13 03:28:05;;;;;;;14.50;6.50;;;;;;;16.35;69.24;101253.23;126306;1099;104226;-81
2021/08/13 03:30:42;;;;;;;19.35;7.50;;;;;;;16.35;69.26;101262.94;125451;1099;104249;-82
2021/08/13 03:33:16;;;;;;;14.87;6.10;;;;;;;16.38;69.97;101260.36;126376;1099;104146;-81
2021/08/13 03:35:47;;;;;;;16.13;6.43;;;;;;;16.40;69.52;101269.23;126295;1099;104566;-81
2021/08/13 03:38:18;;;;;;;18.00;6.50;;;;;;;16.41;69.19;101272.77;126279;1099;105379;-82
2021/08/13 03:40:49;;;;;;;15.07;6.67;;;;;;;16.42;69.64;101278.10;126272;1099;104191;-82
2021/08/13 03:43:20;;;;;;;16.87;6.27;;;;;;;16.44;69.67;101265.81;126356;1099;104162;-82
2021/08/13 03:45:51;;;;;;;18.77;6.80;;;;;;;16.46;69.88;101269.38;126306;1099;104227;-82
2021/08/13 03:48:22;;;;;;;16.37;7.30;;;;;;;16.48;70.25;101270.30;125334;1099;104393;-81
2021/08/13 03:50:53;;;;;;;15.13;5.67;;;;;;;16.49;70.20;101268.57;126277;1099;104201;-79
2021/08/13 03:53:24;;;;;;;14.00;6.23;;;;;;;16.48;70.02;101274.72;125446;1099;104204;-81
2021/08/13 03:55:55;;;;;;;17.30;6.60;;;;;;;16.47;69.62;101276.48;125890;1099;104205;-81
2021/08/13 03:58:28;;;;;;;16.20;6.37;;;;;;;16.50;70.56;101268.61;126260;1099;104447;-81
2021/08/13 04:00:59;;;;;;;14.93;6.33;;;;;;;16.52;70.40;101273.94;126297;1099;104316;-81
2021/08/13 04:03:30;;;;;;;13.70;6.10;;;;;;;16.51;70.61;101274.78;125388;1099;104136;-81
2021/08/13 04:06:02;;;;;;;18.80;6.40;;;;;;;16.51;70.46;101270.38;126314;1099;104181;-80
2021/08/13 04:08:33;;;;;;;13.80;5.95;;;;;;;16.53;70.01;101271.33;126296;1099;104175;-80
2021/08/13 04:11:05;;;;;;;17.10;6.40;;;;;;;16.59;70.72;101275.86;126315;1099;104195;-80
2021/08/13 04:13:41;;;;;;;15.93;6.37;;;;;;;16.62;70.36;101273.28;125420;1099;104278;-80
2021/08/13 04:16:15;;;;;;;16.00;6.07;;;;;;;16.66;70.42;101268.97;126337;1099;104149;-82
2021/08/13 04:18:47;;;;;;;14.50;6.40;;;;;;;16.74;70.33;101272.67;125373;1099;104161;-80
2021/08/13 04:21:21;;;;;;;16.20;6.40;;;;;;;16.77;70.21;101278.05;126338;1097;104252;-81
2021/08/13 04:23:52;;;;;;;21.50;6.73;;;;;;;16.80;70.20;101278.12;126295;1099;104246;-81
2021/08/13 04:26:23;;;;;;;12.23;5.40;;;;;;;16.86;70.35;101282.67;126281;1099;104204;-80
2021/08/13 04:28:57;;;;;;;18.77;6.37;;;;;;;16.89;69.99;101273.05;126155;1099;104155;-79
2021/08/13 04:31:29;;;;;;;17.00;6.63;;;;;;;16.94;70.04;101278.46;125441;1099;104302;-82
2021/08/13 04:34:00;;;;;;;17.87;6.47;;;;;;;16.94;70.38;101275.81;126322;1099;104243;-80
2021/08/13 04:36:32;;;;;;;16.13;5.60;;;;;;;17.03;69.76;101283.05;126332;1099;104249;-80
2021/08/13 04:39:04;;;;;;;18.97;5.80;;;;;;;17.07;69.70;101290.22;125312;1099;104198;-81
2021/08/13 04:41:40;;;;;;;16.70;5.73;;;;;;;17.15;69.41;101288.62;126318;1099;104149;-81
2021/08/13 04:44:12;;;;;;;21.23;5.53;;;;;;;17.26;70.05;101294.15;126288;1099;104158;-80
2021/08/13 04:46:43;;;;;;;17.87;5.70;;;;;;;17.34;69.98;101295.23;126313;1099;104309;-81
2021/08/13 04:49:15;;;;;;;13.83;6.27;;;;;;;17.42;69.90;101296.27;126211;1099;104215;-80
2021/08/13 04:51:46;;;;;;;13.87;6.17;;;;;;;17.49;69.83;101294.63;126318;1099;104197;-81
2021/08/13 04:54:17;;;;;;;15.83;5.77;;;;;;;17.55;69.75;101305.36;126302;1099;104146;-80
2021/08/13 04:56:49;;;;;;;15.95;5.90;;;;;;;17.60;69.36;101311.64;126349;1099;104153;-80
2021/08/13 04:59:20;;;;;;;19.53;6.30;;;;;;;17.69;69.58;101312.72;126298;1099;104159;-82
2021/08/13 05:02:02;;;;;;;14.53;5.63;;;;;;;17.76;69.30;101315.52;125401;1099;104140;-80
2021/08/13 05:04:39;;;;;;;16.43;6.40;;;;;;;17.85;69.45;101324.52;126211;1099;104181;-80
2021/08/13 05:07:12;;;;;;;18.73;6.00;;;;;;;17.92;68.96;101323.77;126236;1099;104252;-80
2021/08/13 05:09:47;;;;;;;18.13;6.57;;;;;;;17.96;68.99;101334.48;126312;1099;104293;-81
2021/08/13 05:12:17;;;;;;;13.90;6.20;;;;;;;18.02;68.95;101333.72;126190;1099;104137;-80
2021/08/13 05:14:49;;;;;;;15.05;5.70;;;;;;;18.06;68.63;101334.66;125335;1099;104144;-81
2021/08/13 05:17:24;;;;;;;15.40;6.03;;;;;;;18.11;68.58;101331.23;126109;1099;104746;-80
2021/08/13 05:19:59;;;;;;;18.77;6.33;;;;;;;18.17;68.38;101338.42;125257;1102;104326;-80
2021/08/13 05:22:40;;;;;;;15.27;6.20;;;;;;;18.21;68.34;101337.59;126235;1099;104201;-79
2021/08/13 05:25:15;;;;;;;18.97;6.17;;;;;;;18.25;68.35;101341.22;126175;1099;104211;-80
2021/08/13 05:27:49;;;;;;;17.95;5.80;;;;;;;18.32;68.15;101337.78;125315;1099;104152;-82
2021/08/13 05:30:23;;;;;;;13.93;5.93;;;;;;;18.36;68.00;101333.44;126138;1099;104309;-79
2021/08/13 05:32:55;;;;;;;19.07;6.10;;;;;;;18.44;68.01;101334.45;125326;1102;104277;-79
2021/08/13 05:35:27;;;;;;;;;;;;;;;18.53;68.05;101342.57;125401;1099;104137;-78
2021/08/13 05:38:11;;;;;;;15.37;5.70;;;;;;;18.59;67.98;101340.02;125272;1102;104223;-77
2021/08/13 05:40:49;;;;;;;17.60;5.80;;;;;;;18.65;67.87;101348.09;125284;1099;104396;-76
2021/08/13 05:43:22;;;;;;;14.27;5.73;;;;;;;18.71;67.72;101344.61;126066;1099;104350;-77
2021/08/13 05:46:03;;;;;;;21.27;6.13;;;;;;;18.76;67.32;101344.69;125149;1099;104293;-77
2021/08/13 05:48:44;;;;;;;17.25;6.20;;;;;;;18.82;67.10;101343.04;126037;1099;104246;-77
2021/08/13 05:51:18;;;;;;;15.83;5.50;;;;;;;18.86;67.13;101347.55;125288;1099;104181;-79
2021/08/13 05:53:52;;;;;;;19.20;5.80;;;;;;;18.92;66.94;101340.55;126062;1099;104175;-81
2021/08/13 05:56:27;;;;;;;14.33;6.40;;;;;;;18.97;66.35;101345.05;126016;1099;104281;-78
2021/08/13 05:59:02;;;;;;;16.63;6.10;;;;;;;19.03;66.86;101350.45;126170;1099;104172;-78
2021/08/13 06:01:46;;;;;;;16.37;5.73;;;;;;;19.09;66.95;101343.42;126100;1099;104299;-79
2021/08/13 06:04:20;;;;;;;16.97;6.03;;;;;;;19.19;67.00;101345.35;125261;1099;104152;-78
2021/08/13 06:06:55;;;;;;;15.40;5.90;;;;;;;19.28;67.10;101345.48;126112;1099;104140;-77
2021/08/13 06:09:30;;;;;;;15.63;6.25;;;;;;;19.37;65.93;101350.92;125922;1099;104162;-77
2021/08/13 06:12:19;;;;;;;18.53;6.23;;;;;;;19.45;66.90;101348.36;126128;1099;104150;-81
2021/08/13 06:14:52;;;;;;;17.20;5.80;;;;;;;19.53;66.41;101345.80;125394;1099;101836;-79
2021/08/13 06:17:29;;;;;;;17.62;6.35;;;;;;;19.59;66.52;101343.21;126179;1099;104175;-80
2021/08/13 06:20:02;;;;;;;20.30;6.07;;;;;;;19.65;66.79;101340.62;125187;1099;104142;-80
2021/08/13 06:22:39;;;;;;;21.73;6.37;;;;;;;19.72;65.80;101342.46;126068;1099;107741;-79
2021/08/13 06:25:21;;;;;;;16.87;5.80;;;;;;;19.81;66.21;101347.05;125373;1099;104625;-78
2021/08/13 06:27:56;;;;;;;18.32;6.12;;;;;;;19.88;65.80;101348.91;125356;1099;104156;-77
2021/08/13 06:30:29;;;;;;;14.77;5.73;;;;;;;19.96;65.64;101348.08;125313;1099;104591;-77
2021/08/13 06:33:02;;;;;;;14.90;6.05;;;;;;;20.04;65.60;101336.64;125962;1099;104182;-78
2021/08/13 06:35:35;;;;;;;16.07;5.60;;;;;;;20.13;66.03;101342.92;126114;1099;104152;-77
2021/08/13 06:38:10;;;;;;;15.77;5.30;;;;;;;20.19;65.61;101341.20;125932;1099;104171;-79
2021/08/13 06:40:45;;;;;;;18.43;5.57;;;;;;;20.35;64.75;101338.68;126106;1098;104261;-77
2021/08/13 06:43:19;;;;;;;13.70;5.75;;;;;;;20.46;64.83;101348.57;125288;1099;104245;-77
2021/08/13 06:46:00;;;;;;;15.13;6.00;;;;;;;20.57;64.62;101343.33;125327;1100;104249;-77
2021/08/13 06:48:36;;;;;;;16.17;6.07;;;;;;;20.70;64.19;101336.34;125235;1102;104141;-77
2021/08/13 06:51:13;;;;;;;14.83;5.12;;;;;;;20.81;64.90;101329.30;126090;1099;104172;-79
2021/08/13 06:53:46;;;;;;;17.33;5.60;;;;;;;20.93;64.71;101332.95;125197;1102;104297;-79
2021/08/13 06:56:19;;;;;;;14.50;5.45;;;;;;;21.06;63.53;101334.78;124972;1102;104414;-78
2021/08/13 06:58:50;;;;;;;14.63;5.30;;;;;;;21.18;63.91;101329.52;125214;1102;104197;-78
2021/08/13 07:01:34;;;;;;;16.13;5.93;;;;;;;21.32;63.15;101340.27;125083;1102;104472;-79
2021/08/13 07:04:16;;;;;;;16.03;5.57;;;;;;;21.48;63.41;101343.89;124939;1102;104187;-78
2021/08/13 07:07:15;;;;;;;;;;;;;;;;;;;;;
2021/08/13 07:09:49;;;;;;;11.60;4.83;;;;;;;21.82;61.70;101344.05;124991;1102;104192;-79
2021/08/13 07:12:26;;;;;;;15.33;5.07;;;;;;;21.95;62.08;101339.61;124975;1102;104644;-79
2021/08/13 07:15:02;;;;;;;16.40;5.20;;;;;;;22.07;61.29;101344.10;124894;1102;104571;-77
2021/08/13 07:17:48;;;;;;;16.10;5.10;;;;;;;22.23;61.13;101335.19;124885;1105;104162;-78
2021/08/13 07:20:35;;;;;;;16.03;5.50;;;;;;;22.36;59.97;101335.23;124874;1105;104204;-79
2021/08/13 07:23:26;;;;;;;13.40;4.70;;;;;;;22.51;59.74;101331.69;124876;1103;104261;-78
2021/08/13 07:26:01;;;;;;;11.30;4.50;;;;;;;22.74;59.06;101321.84;125068;1102;104248;-78
2021/08/13 07:28:37;;;;;;;16.33;5.10;;;;;;;22.92;57.99;101331.63;125107;1102;104281;-79
2021/08/13 07:31:13;;;;;;;11.47;4.40;;;;;;;22.98;57.78;101328.95;125240;1102;104342;-77
2021/08/13 07:33:54;;;;;;;14.73;5.27;;;;;;;23.11;57.27;101332.50;125131;1102;111843;-77
2021/08/13 07:36:26;;;;;;;11.73;4.83;;;;;;;23.36;56.47;101334.19;125308;1099;104262;-77
2021/08/13 07:39:05;;;;;;;12.87;4.90;;;;;;;23.52;56.06;101333.24;125825;1099;104249;-79
2021/08/13 07:41:40;;;;;;;12.07;4.43;;;;;;;23.66;56.19;101335.86;125818;1098;104770;-76
2021/08/13 07:44:13;;;;;;;10.73;4.67;;;;;;;23.81;55.82;101337.54;125242;1099;104257;-77
2021/08/13 07:46:49;;;;;;;8.93;4.20;;;;;;;24.02;55.81;101333.88;126073;1099;104662;-77
2021/08/13 07:49:29;;;;;;;;;;;;;;;24.22;52.44;101329.26;126165;1099;104173;-78
2021/08/13 07:52:02;;;;;;;17.80;4.80;;;;;;;24.37;54.58;101333.62;126112;1099;104207;-76
2021/08/13 07:54:42;;;;;;;9.37;4.17;;;;;;;24.47;53.44;101331.75;125279;1099;104178;-78
2021/08/13 07:57:23;;;;;;;8.17;3.90;;;;;;;24.58;52.87;101335.25;126222;1099;104149;-77
2021/08/13 07:59:57;;;;;;;8.60;4.37;;;;;;;24.72;52.75;101334.24;125313;1099;104261;-78
2021/08/13 08:02:40;;;;;;;10.93;4.40;;;;;;;24.80;51.50;101331.48;126167;1099;104274;-78
2021/08/13 08:05:15;;;;;;;12.37;4.70;;;;;;;24.94;52.18;101333.09;126190;1099;104223;-77
2021/08/13 08:07:47;;;;;;;;;;;;;;;25.02;50.68;101322.28;126218;1099;104285;-77
2021/08/13 08:10:20;;;;;;;10.03;4.33;;;;;;;25.15;51.14;101323.05;126143;1099;104313;-77
2021/08/13 08:12:54;;;;;;;12.00;4.67;;;;;;;25.26;50.95;101313.06;125996;1099;104255;-78
2021/08/13 08:15:29;;;;;;;13.00;4.43;;;;;;;25.30;50.08;101317.50;126243;1099;104179;-77
2021/08/13 08:18:06;;;;;;;9.27;3.93;;;;;;;25.41;48.83;101325.42;126224;1099;104175;-77
2021/08/13 08:20:41;;;;;;;10.33;4.53;;;;;;;25.48;48.99;101313.70;126043;1099;104137;-77
2021/08/13 08:23:23;;;;;;;11.33;4.40;;;;;;;25.56;48.75;101320.78;126083;1099;104216;-77
2021/08/13 08:26:22;;;;;;;10.63;4.43;;;;;;;25.70;48.81;101318.78;125490;1099;104291;-77
2021/08/13 08:28:55;;;;;;;11.83;4.30;;;;;;;25.78;48.17;101319.55;126227;1099;104248;-77
2021/08/13 08:31:30;;;;;;;8.03;3.93;;;;;;;25.69;47.83;101321.49;126271;1099;104153;-78
2021/08/13 08:34:01;;;;;;;11.03;4.37;;;;;;;25.62;47.07;101326.95;125311;1099;104389;-77
2021/08/13 08:36:36;;;;;;;11.27;3.80;;;;;;;25.58;47.58;101316.27;125287;1099;104168;-77
2021/08/13 08:39:11;;;;;;;7.70;3.90;;;;;;;25.60;46.68;101317.12;125373;1099;104169;-78
2021/08/13 08:41:46;;;;;;;9.63;4.27;;;;;;;25.62;46.87;101316.20;126182;1099;104159;-77
2021/08/13 08:44:17;;;;;;;;;;;;;;;25.74;46.09;101314.24;126232;1099;104185;-77
2021/08/13 08:47:16;;;;;;;16.73;4.57;;;;;;;25.87;45.99;101325.70;125559;1099;104153;-78
2021/08/13 08:49:51;;;;;;;8.67;3.77;;;;;;;25.91;44.94;101314.00;125280;1100;104229;-77
2021/08/13 08:52:35;;;;;;;8.07;3.90;;;;;;;25.95;44.29;101324.69;126176;1099;104255;-77
2021/08/13 08:55:15;;;;;;;6.80;3.77;;;;;;;26.03;44.33;101327.30;126150;1099;104146;-77
2021/08/13 08:57:54;;;;;;;8.57;3.53;;;;;;;26.09;44.00;101318.25;125253;1099;104297;-79
2021/08/13 09:00:31;;;;;;;7.27;3.80;;;;;;;26.13;44.33;101312.80;125305;1099;104221;-79
2021/08/13 09:03:23;;;;;;;11.17;4.90;;;;;;;26.11;43.93;101319.98;125185;1102;105586;-79
2021/08/13 09:06:11;;;;;;;8.33;3.97;;;;;;;26.15;43.46;101319.03;125173;1102;110814;-80
2021/08/13 09:08:48;;;;;;;9.03;3.63;;;;;;;26.13;43.29;101323.56;125197;1102;104303;-79
2021/08/13 09:11:28;;;;;;;8.40;3.70;;;;;;;26.14;42.16;101317.25;125171;1102;104162;-79
2021/08/13 09:14:06;;;;;;;7.70;3.63;;;;;;;26.12;41.39;101320.89;125104;1102;104149;-78
2021/08/13 09:17:00;;;;;;;;;;;;;;;25.94;40.58;101324.70;125237;1102;104207;-78
2021/08/13 09:19:53;;;;;;;6.83;3.70;;;;;;;25.96;42.17;101320.19;125118;1102;104284;-79
2021/08/13 09:22:27;;;;;;;10.20;4.40;;;;;;;25.99;42.08;101322.86;125196;1102;104283;-76
2021/08/13 09:25:00;;;;;;;6.33;4.00;;;;;;;25.99;41.24;101336.30;125127;1102;104301;-76
2021/08/13 09:27:51;;;;;;;8.33;3.80;;;;;;;25.91;41.69;101320.25;125142;1102;104449;-78
2021/08/13 09:30:34;;;;;;;7.75;4.00;;;;;;;25.90;40.77;101315.81;125059;1102;104303;-76
2021/08/13 09:33:10;;;;;;;7.87;3.90;;;;;;;25.90;40.48;101326.56;125123;1102;104191;-76
2021/08/13 09:35:44;;;;;;;6.37;3.83;;;;;;;25.93;41.13;101320.23;125213;1099;104248;-77
2021/08/13 09:38:16;;;;;;;7.30;4.00;;;;;;;26.06;41.21;101320.98;126234;1099;104198;-77
2021/08/13 09:41:08;;;;;;;7.22;3.90;;;;;;;26.12;41.16;101315.52;126168;1099;104172;-77
2021/08/13 09:43:59;;;;;;;10.03;4.03;;;;;;;26.13;40.37;101318.18;125358;1099;104243;-79
2021/08/13 09:46:38;;;;;;;11.07;4.17;;;;;;;26.24;40.02;101314.41;125327;1099;111923;-79
2021/08/13 09:49:16;;;;;;;8.30;4.40;;;;;;;26.32;40.15;101310.69;126264;1098;104149;-78
2021/08/13 09:51:52;;;;;;;9.87;4.27;;;;;;;26.38;40.54;101317.75;126039;1099;104220;-79
2021/08/13 09:54:30;;;;;;;7.65;4.10;;;;;;;26.37;39.66;101319.56;125189;1099;104769;-78
2021/08/13 09:57:16;;;;;;;9.23;4.10;;;;;;;26.38;38.89;101312.36;126219;1098;104182;-78
2021/08/13 10:00:03;;;;;;;7.07;3.93;;;;;;;26.36;38.47;101314.20;126241;1099;104184;-78
2021/08/13 10:02:45;;;;;;;8.40;4.00;;;;;;;26.38;38.44;101325.81;126283;1099;104201;-77
2021/08/13 10:05:28;;;;;;;12.20;4.57;;;;;;;26.39;38.56;101311.46;126045;1099;104219;-78
2021/08/13 10:08:05;;;;;;;8.27;4.13;;;;;;;26.44;39.24;101316.77;125152;1099;104213;-79
2021/08/13 10:10:49;;;;;;;10.53;4.00;;;;;;;26.47;38.95;101320.28;125762;1099;104152;-78
2021/08/13 10:13:43;;;;;;;9.40;4.17;;;;;;;26.49;38.32;101323.86;125086;1099;104166;-79
2021/08/13 10:16:26;;;;;;;9.43;4.27;;;;;;;26.48;38.47;101316.69;125805;1099;104229;-79
2021/08/13 10:19:08;;;;;;;13.07;4.73;;;;;;;26.50;37.71;101322.92;125873;1099;104169;-78
2021/08/13 10:21:49;;;;;;;9.83;4.30;;;;;;;26.40;37.55;101310.56;125255;1099;104169;-78
2021/08/13 10:24:34;;;;;;;10.37;4.63;;;;;;;26.36;37.64;101309.70;125968;1099;104153;-79
2021/08/13 10:27:16;;;;;;;8.70;4.30;;;;;;;26.45;37.78;101307.79;126036;1099;104162;-79
2021/08/13 10:29:52;;;;;;;10.57;4.63;;;;;;;26.51;37.27;101318.45;125254;1100;104182;-77
2021/08/13 10:32:32;;;;;;;8.87;4.30;;;;;;;26.56;37.66;101316.55;125317;1102;104232;-79
2021/08/13 10:35:08;;;;;;;11.57;4.70;;;;;;;26.66;38.13;101303.84;125286;1099;104220;-77
2021/08/13 10:37:42;;;;;;;10.97;4.40;;;;;;;26.68;37.58;101300.22;126373;1099;104230;-79
2021/08/13 10:40:15;;;;;;;10.27;4.50;;;;;;;26.79;38.34;101296.45;126322;1099;104205;-80
2021/08/13 10:42:55;;;;;;;10.73;4.37;;;;;;;26.85;37.83;101302.59;126154;1099;102102;-79
2021/08/13 10:45:33;;;;;;;12.40;4.43;;;;;;;26.70;37.69;101305.57;126298;1099;104248;-80
2021/08/13 10:48:14;;;;;;;12.90;4.30;;;;;;;26.56;37.33;101305.79;125439;1099;107424;-78
2021/08/13 10:51:07;;;;;;;12.35;4.55;;;;;;;26.49;37.65;101298.73;125324;1099;105657;-82
2021/08/13 10:54:20;;;;;;;;;;;;;;;;;;;;;
2021/08/13 10:57:11;;;;;;;9.43;4.13;;;;;;;26.62;37.79;101304.80;125288;1102;103264;-79
2021/08/13 11:00:05;;;;;;;11.87;4.70;;;;;;;26.44;38.15;101304.19;125287;1102;104338;-81
2021/08/13 11:02:40;;;;;;;9.37;4.60;;;;;;;26.31;38.01;101299.95;125207;1102;104293;-79
2021/08/13 11:05:36;;;;;;;12.30;4.53;;;;;;;26.35;36.99;101304.34;125217;1102;105426;-77
2021/08/13 11:08:12;;;;;;;11.43;4.40;;;;;;;26.45;37.72;101295.22;125120;1102;104309;-79
2021/08/13 11:10:59;;;;;;;13.63;4.70;;;;;;;26.61;37.27;101294.94;125135;1102;105807;-79
2021/08/13 11:13:40;;;;;;;10.60;4.40;;;;;;;26.71;37.70;101293.90;125196;1102;104168;-78
2021/08/13 11:16:34;;;;;;;13.43;4.60;;;;;;;26.66;38.18;101301.15;125196;1102;104287;-79
2021/08/13 11:19:15;;;;;;;11.57;4.77;;;;;;;26.47;37.88;101292.50;125192;1101;104254;-78
2021/08/13 11:22:05;;;;;;;10.23;5.00;;;;;;;26.41;37.84;101295.30;125184;1102;104383;-78
2021/08/13 11:25:08;;;;;;;9.73;4.30;;;;;;;26.53;38.13;101298.64;125266;1102;105402;-80
2021/08/13 11:28:09;;;;;;;10.47;4.80;;;;;;;26.68;37.84;101285.88;125100;1103;104977;-79
2021/08/13 11:30:49;;;;;;;9.87;4.27;;;;;;;26.79;37.54;101291.06;125192;1102;104187;-79
2021/08/13 11:33:43;;;;;;;12.43;4.40;;;;;;;26.76;37.54;101297.38;125193;1102;104325;-77
2021/08/13 11:36:39;;;;;;;7.93;4.10;;;;;;;26.59;37.38;101299.47;125207;1102;104346;-79
2021/08/13 11:39:34;;;;;;;10.87;4.60;;;;;;;26.53;37.77;101290.57;125262;1102;104146;-78
2021/08/13 11:42:22;;;;;;;9.73;4.27;;;;;;;26.67;37.82;101281.41;125265;1102;104380;-79
2021/08/13 11:45:09;;;;;;;9.03;4.13;;;;;;;26.75;37.73;101286.64;125255;1102;104482;-79
2021/08/13 11:48:03;;;;;;;10.23;4.30;;;;;;;26.80;37.31;101288.34;125176;1102;104406;-79
2021/08/13 11:50:43;;;;;;;8.80;4.23;;;;;;;26.93;37.09;101282.69;125037;1102;104225;-79
2021/08/13 11:53:18;;;;;;;8.07;4.20;;;;;;;27.01;37.12;101283.44;125239;1102;104175;-80